Time;durP1;ratioP1;P1;durP2;ratioP2;P2;SDS_P1;SDS_P2;PMS_P1;PMS_P2;Temp;Humidity;BMP_temperature;BMP_pressure;BME280_temperature;BME280_humidity;BME280_pressure;Samples;Min_cycle;Max_cycle;Signal;HPM_P1;HPM_P2
2023/07/02 00:01:58;;;;;;;1.67;1.58;;;;;;;-146.25;100.00;57403.91;5036466;28;20213;-85
2023/07/02 00:04:25;;;;;;;2.67;2.10;;;;;;;-146.25;100.00;57403.91;5032002;28;20760;-85
2023/07/02 00:06:53;;;;;;;2.00;1.65;;;;;;;-146.25;100.00;57403.91;5032114;28;20248;-86
2023/07/02 00:09:20;;;;;;;3.28;2.72;;;;;;;-146.25;100.00;57403.91;5032191;28;20208;-86
2023/07/02 00:11:47;;;;;;;3.60;2.55;;;;;;;-146.25;100.00;57403.91;5032469;28;20220;-85
2023/07/02 00:14:15;;;;;;;2.35;2.15;;;;;;;-146.25;100.00;57403.91;5031769;28;20647;-86
2023/07/02 00:16:45;;;;;;;2.15;2.05;;;;;;;-146.25;100.00;57403.91;5031905;28;20209;-85
2023/07/02 00:19:13;;;;;;;10.50;2.50;;;;;;;-146.25;100.00;57403.91;5032390;28;20198;-85
2023/07/02 00:21:40;;;;;;;4.00;1.80;;;;;;;-146.25;100.00;57403.91;5032192;28;20255;-86
2023/07/02 00:24:10;;;;;;;1.92;1.52;;;;;;;-146.25;100.00;57403.91;5032035;28;20210;-87
2023/07/02 00:26:38;;;;;;;2.10;1.90;;;;;;;-146.25;100.00;57403.91;5032020;28;20208;-84
2023/07/02 00:29:07;;;;;;;2.60;2.40;;;;;;;-146.25;100.00;57403.91;5031358;28;20203;-85
2023/07/02 00:31:34;;;;;;;2.65;2.25;;;;;;;-146.25;100.00;57403.91;5030955;28;20238;-85
2023/07/02 00:34:04;;;;;;;7.40;1.77;;;;;;;-146.25;100.00;57403.91;5032551;28;20219;-86
2023/07/02 00:36:31;;;;;;;3.58;2.17;;;;;;;-146.25;100.00;57403.91;5031712;28;20206;-87
2023/07/02 00:38:59;;;;;;;4.63;1.70;;;;;;;-146.25;100.00;57403.91;5030321;28;20219;-85
2023/07/02 00:41:28;;;;;;;2.20;2.10;;;;;;;-146.25;100.00;57403.91;5031897;28;20289;-85
2023/07/02 00:43:55;;;;;;;2.22;1.85;;;;;;;-146.25;100.00;57403.91;5031812;28;20740;-85
2023/07/02 00:46:25;;;;;;;7.78;2.33;;;;;;;-146.25;100.00;57403.91;5030771;28;20212;-85
2023/07/02 00:48:53;;;;;;;3.08;2.33;;;;;;;-146.25;100.00;57403.91;5031775;28;20334;-85
2023/07/02 00:51:23;;;;;;;1.85;1.75;;;;;;;-146.25;100.00;57403.91;5031457;28;20599;-85
2023/07/02 00:53:51;;;;;;;3.47;2.38;;;;;;;-146.25;100.00;57403.91;5032400;28;20303;-86
2023/07/02 00:56:19;;;;;;;2.40;2.20;;;;;;;-146.25;100.00;57403.91;5031280;28;20782;-86
2023/07/02 00:58:50;;;;;;;2.40;1.83;;;;;;;-146.25;100.00;57403.91;5030985;28;20201;-87
2023/07/02 01:01:18;;;;;;;3.83;2.15;;;;;;;-146.25;100.00;57403.91;5031315;28;20208;-87
2023/07/02 01:03:54;;;;;;;3.90;2.10;;;;;;;-146.25;100.00;57403.91;5030396;28;20215;-85
2023/07/02 01:06:25;;;;;;;4.00;2.22;;;;;;;-146.25;100.00;57403.91;5030837;28;20208;-86
2023/07/02 01:08:53;;;;;;;3.92;1.80;;;;;;;-146.25;100.00;57403.91;5030414;28;20770;-85
2023/07/02 01:11:24;;;;;;;5.50;2.75;;;;;;;-146.25;100.00;57403.91;5030760;28;20221;-86
2023/07/02 01:13:55;;;;;;;1.88;1.77;;;;;;;-146.25;100.00;57403.91;5031101;28;20280;-85
2023/07/02 01:16:23;;;;;;;2.80;2.55;;;;;;;-146.25;100.00;57403.91;5030782;28;20220;-87
2023/07/02 01:18:54;;;;;;;2.45;2.33;;;;;;;-146.25;100.00;57403.91;5051140;28;20210;-84
2023/07/02 01:21:23;;;;;;;3.15;2.28;;;;;;;-146.25;100.00;57403.91;5051866;28;20369;-85
2023/07/02 01:23:51;;;;;;;4.32;2.08;;;;;;;-146.25;100.00;57403.91;5050645;28;20214;-85
2023/07/02 01:26:18;;;;;;;2.38;2.20;;;;;;;-146.25;100.00;57403.91;5050711;28;20211;-86
2023/07/02 01:28:45;;;;;;;3.63;2.42;;;;;;;-146.25;100.00;57403.91;5050864;28;20225;-85
2023/07/02 01:31:12;;;;;;;3.97;2.42;;;;;;;-146.25;100.00;57403.91;5049921;28;20825;-86
2023/07/02 01:33:40;;;;;;;2.35;2.15;;;;;;;-146.25;100.00;57403.91;5049511;28;20197;-85
2023/07/02 01:36:07;;;;;;;2.85;2.03;;;;;;;-146.25;100.00;57403.91;5051472;28;20629;-86
2023/07/02 01:38:35;;;;;;;3.17;2.00;;;;;;;-146.25;100.00;57403.91;5050059;28;20255;-85
2023/07/02 01:41:03;;;;;;;2.15;1.88;;;;;;;-146.25;100.00;57403.91;5050587;28;20202;-86
2023/07/02 01:43:29;;;;;;;2.85;2.65;;;;;;;-146.25;100.00;57403.91;5050159;28;20210;-85
2023/07/02 01:45:59;;;;;;;2.63;1.95;;;;;;;-146.25;100.00;57403.91;5049212;28;20733;-84
2023/07/02 01:48:26;;;;;;;2.25;2.15;;;;;;;-146.25;100.00;57403.91;5050023;28;20278;-85
2023/07/02 01:50:53;;;;;;;2.30;2.10;;;;;;;-146.25;100.00;57403.91;5050069;28;20240;-84
2023/07/02 01:53:19;;;;;;;3.50;2.25;;;;;;;-146.25;100.00;57403.91;5049610;28;20212;-83
2023/07/02 01:55:49;;;;;;;3.20;2.27;;;;;;;-146.25;100.00;57403.91;5049890;28;20216;-84
2023/07/02 01:58:15;;;;;;;7.17;2.40;;;;;;;-146.25;100.00;57403.91;5049558;28;20312;-83
2023/07/02 02:00:42;;;;;;;2.93;2.60;;;;;;;-146.25;100.00;57403.91;5048950;28;20255;-84
2023/07/02 02:03:10;;;;;;;3.77;2.10;;;;;;;-146.25;100.00;57403.91;5049601;28;20801;-84
2023/07/02 02:05:36;;;;;;;3.25;2.92;;;;;;;-146.25;100.00;57403.91;5049254;28;20262;-83
2023/07/02 02:08:04;;;;;;;3.42;3.10;;;;;;;-146.25;100.00;57403.91;5049096;28;20328;-84
2023/07/02 02:10:31;;;;;;;5.63;3.05;;;;;;;-146.25;100.00;57403.91;5049978;28;20262;-83
2023/07/02 02:12:59;;;;;;;3.17;2.90;;;;;;;-146.25;100.00;57403.91;5050084;28;20227;-83
2023/07/02 02:15:26;;;;;;;4.90;2.50;;;;;;;-146.25;100.00;57403.91;5049271;28;20295;-83
2023/07/02 02:17:53;;;;;;;3.17;2.75;;;;;;;-146.25;100.00;57403.91;5062242;28;20271;-84
2023/07/02 02:20:20;;;;;;;5.80;3.13;;;;;;;-146.25;100.00;57403.91;5056396;28;20204;-83
2023/07/02 02:22:47;;;;;;;3.70;2.60;;;;;;;-146.25;100.00;57403.91;5053059;28;20209;-84
2023/07/02 02:25:14;;;;;;;3.20;2.90;;;;;;;-146.25;100.00;57403.91;5051965;28;20197;-84
2023/07/02 02:27:43;;;;;;;4.53;2.87;;;;;;;-146.25;100.00;57403.91;5049703;28;20233;-84
2023/07/02 02:30:12;;;;;;;6.90;2.23;;;;;;;-146.25;100.00;57403.91;5049533;28;20207;-84
2023/07/02 02:32:39;;;;;;;4.40;2.73;;;;;;;-146.25;100.00;57403.91;5050580;28;20375;-84
2023/07/02 02:35:07;;;;;;;4.13;2.63;;;;;;;-146.25;100.00;57403.91;5051081;28;20206;-84
2023/07/02 02:37:36;;;;;;;5.20;3.13;;;;;;;-146.25;100.00;57403.91;5050073;28;20200;-83
2023/07/02 02:40:03;;;;;;;2.90;2.70;;;;;;;-146.25;100.00;57403.91;5049268;28;20699;-84
2023/07/02 02:42:32;;;;;;;6.27;3.07;;;;;;;-146.25;100.00;57403.91;5049543;28;20231;-85
2023/07/02 02:44:59;;;;;;;2.97;2.67;;;;;;;-146.25;100.00;57403.91;5048844;28;20204;-84
2023/07/02 02:47:28;;;;;;;3.27;2.97;;;;;;;-146.25;100.00;57403.91;5049174;28;20212;-84
2023/07/02 02:49:54;;;;;;;2.63;2.20;;;;;;;-146.25;100.00;57403.91;5049042;28;20266;-85
2023/07/02 02:52:21;;;;;;;2.33;2.23;;;;;;;-146.25;100.00;57403.91;5048306;28;20386;-84
2023/07/02 02:54:49;;;;;;;3.07;2.73;;;;;;;-146.25;100.00;57403.91;5048619;28;20249;-85
2023/07/02 02:57:16;;;;;;;7.30;2.37;;;;;;;-146.25;100.00;57403.91;5049097;28;20191;-84
2023/07/02 02:59:43;;;;;;;3.07;2.67;;;;;;;-146.25;100.00;57403.91;5048205;28;20216;-84
2023/07/02 03:02:09;;;;;;;2.87;2.23;;;;;;;-146.25;100.00;57403.91;5048620;28;20203;-84
2023/07/02 03:04:39;;;;;;;4.97;2.90;;;;;;;-146.25;100.00;57403.91;5048524;28;20197;-84
2023/07/02 03:07:07;;;;;;;6.67;3.20;;;;;;;-146.25;100.00;57403.91;5048409;28;20205;-85
2023/07/02 03:09:34;;;;;;;2.80;2.33;;;;;;;-146.25;100.00;57403.91;5048010;28;20238;-85
2023/07/02 03:12:01;;;;;;;2.85;2.55;;;;;;;-146.25;100.00;57403.91;5048948;28;20228;-83
2023/07/02 03:14:28;;;;;;;2.90;2.70;;;;;;;-146.25;100.00;57403.91;5048399;28;20706;-84
2023/07/02 03:16:55;;;;;;;3.90;3.27;;;;;;;-146.25;100.00;57403.91;5048249;28;20193;-83
2023/07/02 03:19:22;;;;;;;6.03;4.03;;;;;;;-146.25;100.00;57403.91;5049254;28;20202;-84
2023/07/02 03:21:51;;;;;;;5.30;3.30;;;;;;;-146.25;100.00;57403.91;5048511;28;20206;-85
2023/07/02 03:24:18;;;;;;;3.20;2.75;;;;;;;-146.25;100.00;57403.91;5046732;28;20202;-86
2023/07/02 03:26:45;;;;;;;3.15;2.78;;;;;;;-146.25;100.00;57403.91;5048281;28;20201;-86
2023/07/02 03:29:13;;;;;;;4.65;2.95;;;;;;;-146.25;100.00;57403.91;5047911;28;20231;-85
2023/07/02 03:31:40;;;;;;;3.05;2.78;;;;;;;-146.25;100.00;57403.91;5048438;28;20203;-85
2023/07/02 03:34:09;;;;;;;5.45;2.88;;;;;;;-146.25;100.00;57403.91;5048336;28;20193;-86
2023/07/02 03:36:36;;;;;;;2.30;2.20;;;;;;;-146.25;100.00;57403.91;5047795;28;20275;-84
2023/07/02 03:39:04;;;;;;;4.57;2.35;;;;;;;-146.25;100.00;57403.91;5047997;28;20652;-85
2023/07/02 03:41:31;;;;;;;2.22;2.13;;;;;;;-146.25;100.00;57403.91;5047999;28;20235;-86
2023/07/02 03:43:58;;;;;;;4.05;3.05;;;;;;;-146.25;100.00;57403.91;5047220;28;20220;-85
2023/07/02 03:46:26;;;;;;;5.18;2.80;;;;;;;-146.25;100.00;57403.91;5047795;28;20251;-85
2023/07/02 03:48:53;;;;;;;2.80;2.60;;;;;;;-146.25;100.00;57403.91;5048015;28;20884;-85
2023/07/02 03:51:19;;;;;;;3.42;3.20;;;;;;;-146.25;100.00;57403.91;5047587;28;20226;-84
2023/07/02 03:53:46;;;;;;;3.50;2.55;;;;;;;-146.25;100.00;57403.91;5048413;28;20208;-85
2023/07/02 03:56:15;;;;;;;3.42;2.97;;;;;;;-146.25;100.00;57403.91;5047995;28;20293;-84
2023/07/02 03:58:42;;;;;;;6.57;2.67;;;;;;;-146.25;100.00;57403.91;5048357;28;20195;-85
2023/07/02 04:01:09;;;;;;;4.88;2.80;;;;;;;-146.25;100.00;57403.91;5029399;28;20215;-85
2023/07/02 04:03:36;;;;;;;2.20;2.10;;;;;;;-146.25;100.00;57403.91;5028675;28;20302;-86
2023/07/02 04:06:05;;;;;;;3.88;2.55;;;;;;;-146.25;100.00;57403.91;5027620;28;20251;-84
2023/07/02 04:08:32;;;;;;;3.58;1.88;;;;;;;-146.25;100.00;57403.91;5028660;28;20238;-85
2023/07/02 04:10:59;;;;;;;2.50;2.40;;;;;;;-146.25;100.00;57403.91;5028844;28;20199;-85
2023/07/02 04:13:28;;;;;;;2.75;2.17;;;;;;;-146.25;100.00;57403.91;5027331;28;20709;-85
2023/07/02 04:15:55;;;;;;;3.85;2.00;;;;;;;-146.25;100.00;57403.91;5028692;28;20207;-85
2023/07/02 04:18:22;;;;;;;2.28;2.08;;;;;;;-146.25;100.00;57403.91;5027084;28;20206;-86
2023/07/02 04:20:49;;;;;;;5.97;1.92;;;;;;;-146.25;100.00;57403.91;5027030;28;20213;-84
2023/07/02 04:23:16;;;;;;;2.63;2.15;;;;;;;-146.25;100.00;57403.91;5027892;28;20200;-84
2023/07/02 04:25:43;;;;;;;2.42;2.22;;;;;;;-146.25;100.00;57403.91;5028163;28;20672;-85
2023/07/02 04:28:10;;;;;;;2.47;2.28;;;;;;;-146.25;100.00;57403.91;5026886;28;20712;-85
2023/07/02 04:30:39;;;;;;;2.42;2.33;;;;;;;-146.25;100.00;57403.91;5028677;28;20205;-84
2023/07/02 04:33:06;;;;;;;2.90;2.28;;;;;;;-146.25;100.00;57403.91;5027887;28;20202;-86
2023/07/02 04:35:34;;;;;;;14.05;6.30;;;;;;;-146.25;100.00;57403.91;5027972;28;20239;-86
2023/07/02 04:38:01;;;;;;;3.47;3.05;;;;;;;-146.25;100.00;57403.91;5031144;28;20295;-85
2023/07/02 04:40:28;;;;;;;10.50;2.83;;;;;;;-146.25;100.00;57403.91;5031983;28;20204;-86
2023/07/02 04:42:58;;;;;;;4.90;3.63;;;;;;;-146.25;100.00;57403.91;5031615;28;20264;-85
2023/07/02 04:45:26;;;;;;;14.27;5.45;;;;;;;-146.25;100.00;57403.91;5031631;28;20242;-85
2023/07/02 04:47:54;;;;;;;3.47;3.17;;;;;;;-146.25;100.00;57403.91;5031053;28;20695;-84
2023/07/02 04:50:22;;;;;;;2.95;2.70;;;;;;;-146.25;100.00;57403.91;5031239;28;20296;-85
2023/07/02 04:52:49;;;;;;;2.90;2.47;;;;;;;-146.25;100.00;57403.91;5031441;28;20293;-87
2023/07/02 04:55:18;;;;;;;2.75;2.47;;;;;;;-146.25;100.00;57403.91;5031286;28;20668;-85
2023/07/02 04:57:45;;;;;;;2.53;2.35;;;;;;;-146.25;100.00;57403.91;5030862;28;20195;-85
2023/07/02 05:00:14;;;;;;;2.60;2.38;;;;;;;-146.25;100.00;57403.91;5029952;28;20276;-85
2023/07/02 05:02:41;;;;;;;3.55;2.78;;;;;;;-146.25;100.00;57403.91;5031195;28;20209;-85
2023/07/02 05:05:10;;;;;;;2.50;2.35;;;;;;;-146.25;100.00;57403.91;5031040;28;20306;-85
2023/07/02 05:07:37;;;;;;;3.45;2.58;;;;;;;-146.25;100.00;57403.91;5030079;28;20578;-86
2023/07/02 05:10:04;;;;;;;2.90;2.63;;;;;;;-146.25;100.00;57403.91;5030603;28;20261;-86
2023/07/02 05:12:32;;;;;;;2.22;2.03;;;;;;;-146.25;100.00;57403.91;5030795;28;20218;-85
2023/07/02 05:14:59;;;;;;;3.53;2.45;;;;;;;-146.25;100.00;57403.91;5030386;28;20588;-86
2023/07/02 05:17:26;;;;;;;4.28;3.20;;;;;;;-146.25;100.00;57403.91;5041190;28;20251;-86
2023/07/02 05:19:53;;;;;;;5.25;2.95;;;;;;;-146.25;100.00;57403.91;5070559;28;20662;-85
2023/07/02 05:22:22;;;;;;;2.70;2.50;;;;;;;-146.25;100.00;57403.91;5080569;28;20193;-87
2023/07/02 05:24:49;;;;;;;4.30;2.33;;;;;;;-146.25;100.00;57403.91;5069846;28;20261;-86
2023/07/02 05:27:16;;;;;;;3.80;3.00;;;;;;;-146.25;100.00;57403.91;5070467;28;20213;-84
2023/07/02 05:29:44;;;;;;;4.30;2.13;;;;;;;-146.25;100.00;57403.91;5071144;28;20242;-86
2023/07/02 05:32:11;;;;;;;3.17;2.88;;;;;;;-146.25;100.00;57403.91;5071448;28;20559;-86
2023/07/02 05:34:38;;;;;;;13.02;4.30;;;;;;;-146.25;100.00;57403.91;5072835;28;20212;-85
2023/07/02 05:37:06;;;;;;;4.70;2.47;;;;;;;-146.25;100.00;57403.91;5072131;28;20202;-85
2023/07/02 05:39:36;;;;;;;3.53;2.65;;;;;;;-146.25;100.00;57403.91;5072857;28;20525;-85
2023/07/02 05:42:03;;;;;;;3.90;2.83;;;;;;;-146.25;100.00;57403.91;5073011;28;20260;-86
2023/07/02 05:44:30;;;;;;;3.17;2.38;;;;;;;-146.25;100.00;57403.91;5073101;28;20618;-84
2023/07/02 05:46:57;;;;;;;3.72;2.60;;;;;;;-146.25;100.00;57403.91;5090490;28;20544;-85
2023/07/02 05:49:26;;;;;;;2.55;2.45;;;;;;;-146.25;100.00;57403.91;5083306;28;20234;-87
2023/07/02 05:51:53;;;;;;;2.63;2.42;;;;;;;-146.25;100.00;57403.91;5073833;28;20203;-85
2023/07/02 05:54:20;;;;;;;3.25;2.97;;;;;;;-146.25;100.00;57403.91;5072943;28;20206;-85
2023/07/02 05:56:49;;;;;;;2.95;2.55;;;;;;;-146.25;100.00;57403.91;5072791;28;20271;-86
2023/07/02 05:59:19;;;;;;;3.35;3.03;;;;;;;-146.25;100.00;57403.91;5072452;28;20199;-86
2023/07/02 06:01:46;;;;;;;3.97;3.22;;;;;;;-146.25;100.00;57403.91;5071943;28;20295;-85
2023/07/02 06:04:13;;;;;;;2.88;2.53;;;;;;;-146.25;100.00;57403.91;5064492;28;20248;-84
2023/07/02 06:06:41;;;;;;;3.10;2.90;;;;;;;-146.25;100.00;57403.91;5041443;28;20200;-85
2023/07/02 06:09:08;;;;;;;6.18;3.70;;;;;;;-146.25;100.00;57403.91;5039984;28;20224;-86
2023/07/02 06:11:37;;;;;;;3.17;2.90;;;;;;;-146.25;100.00;57403.91;5034995;28;20232;-86
2023/07/02 06:14:07;;;;;;;3.03;2.80;;;;;;;-146.25;100.00;57403.91;5032605;28;20288;-85
2023/07/02 06:16:34;;;;;;;3.80;3.20;;;;;;;-146.25;100.00;57403.91;5030513;28;20192;-87
2023/07/02 06:19:01;;;;;;;3.97;3.67;;;;;;;-146.25;100.00;57403.91;5036015;28;20191;-86
2023/07/02 06:21:30;;;;;;;3.67;3.38;;;;;;;-146.25;100.00;57403.91;5038118;28;20195;-88
2023/07/02 06:23:59;;;;;;;8.70;3.60;;;;;;;-146.25;100.00;57403.91;5039616;28;20277;-87
2023/07/02 06:26:26;;;;;;;3.58;3.15;;;;;;;-146.25;100.00;57403.91;5037597;28;20232;-85
2023/07/02 06:28:53;;;;;;;4.93;3.42;;;;;;;-146.25;100.00;57403.91;5041999;28;20730;-86
2023/07/02 06:31:21;;;;;;;5.57;3.67;;;;;;;-146.25;100.00;57403.91;5043106;28;20207;-85
2023/07/02 06:33:48;;;;;;;8.35;3.33;;;;;;;-146.25;100.00;57403.91;5049251;28;20203;-85
2023/07/02 06:36:17;;;;;;;5.03;3.22;;;;;;;-146.25;100.00;57403.91;5040558;28;20572;-85
2023/07/02 06:38:44;;;;;;;3.70;2.88;;;;;;;-146.25;100.00;57403.91;5040570;28;20758;-86
2023/07/02 06:41:11;;;;;;;3.08;2.78;;;;;;;-146.25;100.00;57403.91;5041473;28;20204;-86
2023/07/02 06:43:38;;;;;;;4.68;3.28;;;;;;;-146.25;100.00;57403.91;5038285;28;20275;-84
2023/07/02 06:46:07;;;;;;;11.13;3.45;;;;;;;-146.25;100.00;57403.91;5041813;28;20750;-87
2023/07/02 06:48:36;;;;;;;4.10;2.72;;;;;;;-146.25;100.00;57403.91;5030536;28;20380;-90
2023/07/02 06:51:03;;;;;;;7.00;3.13;;;;;;;-146.25;100.00;57403.91;5029839;28;20262;-86
2023/07/02 06:53:31;;;;;;;2.63;2.40;;;;;;;-146.25;100.00;57403.91;5039836;28;20246;-86
2023/07/02 06:55:59;;;;;;;3.25;2.63;;;;;;;-146.25;100.00;57403.91;5031060;28;20334;-87
2023/07/02 06:58:28;;;;;;;5.50;3.33;;;;;;;-146.25;100.00;57403.91;5041596;28;20203;-87
2023/07/02 07:00:56;;;;;;;3.92;2.97;;;;;;;-146.25;100.00;57403.91;5037629;28;20607;-88
2023/07/02 07:03:24;;;;;;;3.70;3.20;;;;;;;-146.25;100.00;57403.91;5048529;28;20280;-88
2023/07/02 07:05:55;;;;;;;8.07;3.60;;;;;;;-146.25;100.00;57403.91;5048615;28;20199;-86
2023/07/02 07:08:23;;;;;;;6.70;3.08;;;;;;;-146.25;100.00;57403.91;5048847;28;20211;-87
2023/07/02 07:10:51;;;;;;;3.83;3.50;;;;;;;-146.25;100.00;57403.91;5048991;28;20639;-88
2023/07/02 07:13:20;;;;;;;4.07;3.67;;;;;;;-146.25;100.00;57403.91;5048751;28;20257;-87
2023/07/02 07:15:48;;;;;;;4.03;3.70;;;;;;;-146.25;100.00;57403.91;5048759;28;20564;-86
2023/07/02 07:18:15;;;;;;;3.60;2.97;;;;;;;-146.25;100.00;57403.91;5048222;28;20256;-87
2023/07/02 07:20:45;;;;;;;4.22;3.15;;;;;;;-146.25;100.00;57403.91;5046546;28;20571;-88
2023/07/02 07:23:18;;;;;;;6.60;3.42;;;;;;;-146.25;100.00;57403.91;5046287;28;20672;-87
2023/07/02 07:25:46;;;;;;;4.15;3.35;;;;;;;-146.25;100.00;57403.91;5047029;28;21042;-88
2023/07/02 07:28:15;;;;;;;4.13;3.22;;;;;;;-146.25;100.00;57403.91;5046551;28;20199;-87
2023/07/02 07:30:46;;;;;;;3.28;2.80;;;;;;;-146.25;100.00;57403.91;5040198;28;20227;-87
2023/07/02 07:33:14;;;;;;;4.80;3.50;;;;;;;-146.25;100.00;57403.91;5039373;28;20225;-86
2023/07/02 07:35:42;;;;;;;7.88;3.42;;;;;;;-146.25;100.00;57403.91;5046792;28;20251;-86
2023/07/02 07:38:10;;;;;;;4.20;3.10;;;;;;;-146.25;100.00;57403.91;5043891;28;20203;-87
2023/07/02 07:40:38;;;;;;;7.13;3.58;;;;;;;-146.25;100.00;57403.91;5026894;28;20249;-88
2023/07/02 07:43:05;;;;;;;8.60;3.58;;;;;;;-146.25;100.00;57403.91;5036115;28;20453;-86
2023/07/02 07:45:34;;;;;;;6.20;3.33;;;;;;;-146.25;100.00;57403.91;5036997;28;20192;-87
2023/07/02 07:48:02;;;;;;;5.13;3.10;;;;;;;-146.25;100.00;57403.91;5032040;28;20672;-87
2023/07/02 07:50:30;;;;;;;7.72;3.05;;;;;;;-146.25;100.00;57403.91;5027388;28;20247;-87
2023/07/02 07:52:58;;;;;;;4.72;3.15;;;;;;;-146.25;100.00;57403.91;5027653;28;20684;-88
2023/07/02 07:55:26;;;;;;;4.80;2.92;;;;;;;-146.25;100.00;57403.91;5028316;28;20522;-88
2023/07/02 07:57:58;;;;;;;2.67;2.47;;;;;;;-146.25;100.00;57403.91;5027470;28;20200;-88
2023/07/02 08:00:26;;;;;;;5.60;2.88;;;;;;;-146.25;100.00;57403.91;5033620;28;20861;-85
2023/07/02 08:02:57;;;;;;;5.20;3.40;;;;;;;-146.25;100.00;57403.91;5036525;28;20252;-86
2023/07/02 08:05:24;;;;;;;2.65;2.45;;;;;;;-146.25;100.00;57403.91;5036726;28;20231;-85
2023/07/02 08:07:53;;;;;;;5.63;3.15;;;;;;;-146.25;100.00;57403.91;5039661;28;20227;-87
2023/07/02 08:10:21;;;;;;;2.80;2.50;;;;;;;-146.25;100.00;57403.91;5046940;28;20692;-87
2023/07/02 08:12:49;;;;;;;5.15;3.80;;;;;;;-146.25;100.00;57403.91;5050453;28;20294;-88
2023/07/02 08:15:17;;;;;;;4.28;3.28;;;;;;;-146.25;100.00;57403.91;5051199;28;20210;-87
2023/07/02 08:17:45;;;;;;;3.20;2.97;;;;;;;-146.25;100.00;57403.91;5039638;28;20218;-88
2023/07/02 08:20:18;;;;;;;8.82;3.05;;;;;;;-146.25;100.00;57403.91;5043912;28;20507;-86
2023/07/02 08:22:51;;;;;;;3.25;2.97;;;;;;;-146.25;100.00;57403.91;5042088;28;20684;-87
2023/07/02 08:25:21;;;;;;;2.95;2.70;;;;;;;-146.25;100.00;57403.91;5029465;28;20736;-86
2023/07/02 08:27:48;;;;;;;3.17;2.85;;;;;;;-146.25;100.00;57403.91;5040836;28;20231;-86
2023/07/02 08:30:17;;;;;;;4.97;3.10;;;;;;;-146.25;100.00;57403.91;5049879;28;20239;-86
2023/07/02 08:32:50;;;;;;;3.47;3.28;;;;;;;-146.25;100.00;57403.91;5044731;28;20716;-85
2023/07/02 08:35:19;;;;;;;4.15;2.88;;;;;;;-146.25;100.00;57403.91;5029372;28;20228;-87
2023/07/02 08:37:46;;;;;;;3.20;2.75;;;;;;;-146.25;100.00;57403.91;5029532;28;20265;-86
2023/07/02 08:40:20;;;;;;;3.22;2.78;;;;;;;-146.25;100.00;57403.91;5030138;28;20589;-86
2023/07/02 08:42:48;;;;;;;2.72;2.53;;;;;;;-146.25;100.00;57403.91;5038745;28;20219;-87
2023/07/02 08:45:18;;;;;;;3.65;3.13;;;;;;;-146.25;100.00;57403.91;5044095;28;20602;-86
2023/07/02 08:47:46;;;;;;;6.05;2.95;;;;;;;-146.25;100.00;57403.91;5048960;28;20249;-86
2023/07/02 08:50:14;;;;;;;2.50;2.30;;;;;;;-146.25;100.00;57403.91;5038047;28;20316;-87
2023/07/02 08:52:42;;;;;;;2.85;2.65;;;;;;;-146.25;100.00;57403.91;5043569;28;20290;-84
2023/07/02 08:55:10;;;;;;;2.53;2.42;;;;;;;-146.25;100.00;57403.91;5035903;28;20252;-83
2023/07/02 08:57:37;;;;;;;4.30;3.00;;;;;;;-146.25;100.00;57403.91;5039981;28;20246;-85
2023/07/02 09:00:09;;;;;;;2.95;2.50;;;;;;;-146.25;100.00;57403.91;5029803;28;20235;-84
2023/07/02 09:02:50;;;;;;;3.15;2.67;;;;;;;-146.25;100.00;57403.91;5030737;28;20255;-84
2023/07/02 09:05:21;;;;;;;2.95;2.63;;;;;;;-146.25;100.00;57403.91;5038094;28;20231;-85
2023/07/02 09:07:49;;;;;;;3.00;2.40;;;;;;;-146.25;100.00;57403.91;5028054;28;20319;-86
2023/07/02 09:10:27;;;;;;;3.80;2.85;;;;;;;-146.25;100.00;57403.91;5029044;28;20641;-85
2023/07/02 09:13:16;;;;;;;5.38;3.15;;;;;;;-146.25;100.00;57403.91;5047435;28;20235;-86
2023/07/02 09:15:46;;;;;;;3.38;2.40;;;;;;;-146.25;100.00;57403.91;5028175;28;20631;-85
2023/07/02 09:18:18;;;;;;;2.40;2.22;;;;;;;-146.25;100.00;57403.91;5032826;28;20330;-87
2023/07/02 09:20:45;;;;;;;2.70;2.60;;;;;;;-146.25;100.00;57403.91;5034378;28;20228;-85
2023/07/02 09:23:13;;;;;;;4.63;3.28;;;;;;;-146.25;100.00;57403.91;5028904;28;20286;-84
2023/07/02 09:25:42;;;;;;;3.38;2.58;;;;;;;-146.25;100.00;57403.91;5045644;28;20250;-84
2023/07/02 09:28:20;;;;;;;3.60;2.80;;;;;;;-146.25;100.00;57403.91;5048564;28;20289;-85
2023/07/02 09:30:51;;;;;;;5.72;2.95;;;;;;;-146.25;100.00;57403.91;5047781;28;20242;-85
2023/07/02 09:33:20;;;;;;;2.55;2.33;;;;;;;-146.25;100.00;57403.91;5047246;28;20607;-84
2023/07/02 09:35:47;;;;;;;3.30;2.92;;;;;;;-146.25;100.00;57403.91;5048407;28;20231;-85
2023/07/02 09:38:14;;;;;;;4.30;2.40;;;;;;;-146.25;100.00;57403.91;5048054;28;20223;-85
2023/07/02 09:40:46;;;;;;;5.88;2.83;;;;;;;-146.25;100.00;57403.91;5046241;28;20220;-85
2023/07/02 09:43:14;;;;;;;2.42;2.22;;;;;;;-146.25;100.00;57403.91;5039152;28;20231;-85
2023/07/02 09:45:45;;;;;;;3.78;3.45;;;;;;;-146.25;100.00;57403.91;5047946;28;20699;-86
2023/07/02 09:48:15;;;;;;;2.63;2.28;;;;;;;-146.25;100.00;57403.91;5039277;28;20634;-86
2023/07/02 09:50:45;;;;;;;2.92;2.63;;;;;;;-146.25;100.00;57403.91;5030650;28;20629;-86
2023/07/02 09:53:13;;;;;;;2.15;2.05;;;;;;;-146.25;100.00;57403.91;5058382;28;20210;-86
2023/07/02 09:55:41;;;;;;;3.42;2.38;;;;;;;-146.25;100.00;57403.91;5069826;28;20249;-86
2023/07/02 09:58:08;;;;;;;3.17;2.05;;;;;;;-146.25;100.00;57403.91;5036816;28;20231;-87
2023/07/02 10:00:36;;;;;;;2.53;1.67;;;;;;;-146.25;100.00;57403.91;5027101;28;20219;-86
2023/07/02 10:03:03;;;;;;;1.23;1.17;;;;;;;-146.25;100.00;57403.91;5027171;28;20726;-87
2023/07/02 10:05:31;;;;;;;2.55;2.38;;;;;;;-146.25;100.00;57403.91;5027414;28;20707;-85
2023/07/02 10:08:13;;;;;;;2.08;1.90;;;;;;;-146.25;100.00;57403.91;5025517;28;20215;-86
2023/07/02 10:10:40;;;;;;;2.40;2.22;;;;;;;-146.25;100.00;57403.91;5026856;28;20789;-85
2023/07/02 10:13:07;;;;;;;1.40;1.30;;;;;;;-146.25;100.00;57403.91;5026172;28;21087;-85
2023/07/02 10:15:37;;;;;;;0.80;0.80;;;;;;;-146.25;100.00;57403.91;5026778;28;20250;-85
2023/07/02 10:18:05;;;;;;;2.13;2.03;;;;;;;-146.25;100.00;57403.91;5026696;28;20215;-85
2023/07/02 10:20:34;;;;;;;3.58;2.67;;;;;;;-146.25;100.00;57403.91;5026615;28;20215;-86
2023/07/02 10:23:04;;;;;;;4.18;2.42;;;;;;;-146.25;100.00;57403.91;5026393;28;20743;-85
2023/07/02 10:25:32;;;;;;;2.97;2.47;;;;;;;-146.25;100.00;57403.91;5027578;28;20835;-85
2023/07/02 10:28:00;;;;;;;2.30;2.10;;;;;;;-146.25;100.00;57403.91;5028033;28;20212;-85
2023/07/02 10:30:35;;;;;;;4.65;2.15;;;;;;;-146.25;100.00;57403.91;5028258;28;20239;-85
2023/07/02 10:33:10;;;;;;;2.20;2.10;;;;;;;-146.25;100.00;57403.91;5028034;28;20261;-86
2023/07/02 10:35:37;;;;;;;3.05;2.20;;;;;;;-146.25;100.00;57403.91;5028393;28;20196;-84
2023/07/02 10:38:07;;;;;;;2.28;2.10;;;;;;;-146.25;100.00;57403.91;5028105;28;20294;-85
2023/07/02 10:40:34;;;;;;;3.85;2.22;;;;;;;-146.25;100.00;57403.91;5027744;28;20709;-85
2023/07/02 10:43:01;;;;;;;2.17;2.00;;;;;;;-146.25;100.00;57403.91;5027952;28;20294;-85
2023/07/02 10:45:34;;;;;;;3.38;2.42;;;;;;;-146.25;100.00;57403.91;5031833;28;20335;-84
2023/07/02 10:48:04;;;;;;;2.40;2.30;;;;;;;-146.25;100.00;57403.91;5026920;28;20215;-85
2023/07/02 10:50:33;;;;;;;3.50;2.45;;;;;;;-146.25;100.00;57403.91;5027947;28;20985;-85
2023/07/02 10:53:00;;;;;;;2.50;2.05;;;;;;;-146.25;100.00;57403.91;5028290;28;20231;-86
2023/07/02 10:55:29;;;;;;;2.13;1.98;;;;;;;-146.25;100.00;57403.91;5027199;28;20251;-84
2023/07/02 10:58:07;;;;;;;2.00;1.80;;;;;;;-146.25;100.00;57403.91;5027997;28;20485;-85
2023/07/02 11:00:34;;;;;;;2.53;2.33;;;;;;;-146.25;100.00;57403.91;5030001;28;20280;-86
2023/07/02 11:03:04;;;;;;;2.22;2.00;;;;;;;-146.25;100.00;57403.91;5029704;28;20211;-86
2023/07/02 11:05:32;;;;;;;2.50;2.10;;;;;;;-146.25;100.00;57403.91;5029844;28;20262;-86
2023/07/02 11:08:09;;;;;;;2.15;2.05;;;;;;;-146.25;100.00;57403.91;5030256;28;20298;-86
2023/07/02 11:10:38;;;;;;;2.42;2.25;;;;;;;-146.25;100.00;57403.91;5029446;28;20238;-85
2023/07/02 11:13:12;;;;;;;2.90;2.38;;;;;;;-146.25;100.00;57403.91;5029210;28;20232;-85
2023/07/02 11:15:41;;;;;;;2.67;2.47;;;;;;;-146.25;100.00;57403.91;5029553;28;20195;-85